Time;durP1;ratioP1;P1;durP2;ratioP2;P2;SDS_P1;SDS_P2;PMS_P1;PMS_P2;Temp;Humidity;BMP_temperature;BMP_pressure;BME280_temperature;BME280_humidity;BME280_pressure;Samples;Min_cycle;Max_cycle;Signal;HPM_P1;HPM_P2
2021/08/23 00:01:49;;;;;;;15.00;13.80;;;18.50;99.90;;;;;;5034140;28;20500;-66
2021/08/23 00:04:15;;;;;;;16.13;15.00;;;18.50;99.90;;;;;;5034930;28;20441;-66
2021/08/23 00:06:42;;;;;;;15.90;14.90;;;18.50;99.90;;;;;;5034865;28;20445;-66
2021/08/23 00:09:10;;;;;;;16.03;14.93;;;18.50;99.90;;;;;;5034767;28;20444;-66
2021/08/23 00:11:37;;;;;;;17.27;16.00;;;18.50;99.90;;;;;;5034225;28;20484;-66
2021/08/23 00:14:04;;;;;;;18.17;16.73;;;18.50;99.90;;;;;;5034747;28;20445;-66
2021/08/23 00:16:31;;;;;;;16.37;15.07;;;18.50;99.90;;;;;;5034530;28;20448;-66
2021/08/23 00:18:58;;;;;;;17.10;15.53;;;18.50;99.90;;;;;;5034682;28;20448;-66
2021/08/23 00:21:27;;;;;;;15.80;14.90;;;18.40;99.90;;;;;;5034345;28;20812;-66
2021/08/23 00:24:05;;;;;;;15.87;14.77;;;18.40;99.90;;;;;;5034437;28;20461;-66
2021/08/23 00:26:33;;;;;;;16.83;15.63;;;18.40;99.90;;;;;;5034439;28;20865;-66
2021/08/23 00:29:00;;;;;;;17.47;16.17;;;18.30;99.90;;;;;;5034390;28;20445;-66
2021/08/23 00:31:27;;;;;;;15.60;14.40;;;18.30;99.90;;;;;;5034179;28;20481;-66
2021/08/23 00:33:54;;;;;;;17.07;15.97;;;18.30;99.90;;;;;;5034286;28;20445;-67
2021/08/23 00:36:21;;;;;;;18.40;17.07;;;18.30;99.90;;;;;;5034389;28;20995;-66
2021/08/23 00:38:47;;;;;;;17.80;16.50;;;18.30;99.90;;;;;;5034335;28;20463;-66
2021/08/23 00:41:14;;;;;;;16.63;15.43;;;18.30;99.90;;;;;;5033982;28;20465;-66
2021/08/23 00:43:42;;;;;;;17.80;16.40;;;18.30;99.90;;;;;;5033908;28;20449;-66
2021/08/23 00:46:09;;;;;;;17.30;15.77;;;18.30;99.90;;;;;;5034250;28;20457;-66
2021/08/23 00:48:37;;;;;;;18.37;16.63;;;18.30;99.90;;;;;;5034112;28;20449;-66
2021/08/23 00:51:04;;;;;;;16.77;15.40;;;18.30;99.90;;;;;;5033707;28;20492;-66
2021/08/23 00:53:30;;;;;;;15.80;14.80;;;18.30;99.90;;;;;;5034065;28;20923;-66
2021/08/23 00:55:57;;;;;;;17.60;16.23;;;18.30;99.90;;;;;;5033805;28;20445;-66
2021/08/23 00:58:24;;;;;;;16.07;14.57;;;18.30;99.90;;;;;;5033989;28;20445;-66
2021/08/23 01:00:58;;;;;;;18.00;16.40;;;18.40;99.90;;;;;;5033241;28;20468;-66
2021/08/23 01:03:33;;;;;;;15.27;14.17;;;18.30;99.90;;;;;;5033816;28;20951;-66
2021/08/23 01:06:01;;;;;;;16.60;15.30;;;18.40;99.90;;;;;;5033841;28;20945;-66
2021/08/23 01:08:34;;;;;;;16.57;15.47;;;18.30;99.90;;;;;;5033342;28;20445;-66
2021/08/23 01:11:04;;;;;;;15.97;14.77;;;18.30;99.90;;;;;;5033342;28;20491;-66
2021/08/23 01:13:33;;;;;;;17.47;15.83;;;18.30;99.90;;;;;;5033754;28;20464;-66
2021/08/23 01:16:01;;;;;;;16.80;15.60;;;18.30;99.90;;;;;;5033517;28;20445;-66
2021/08/23 01:18:29;;;;;;;17.50;16.10;;;18.30;99.90;;;;;;5033647;28;20543;-66
2021/08/23 01:21:00;;;;;;;18.00;16.70;;;18.30;99.90;;;;;;5033557;28;20913;-66
2021/08/23 01:23:27;;;;;;;16.40;15.10;;;18.30;99.90;;;;;;5033293;28;20449;-66
2021/08/23 01:25:54;;;;;;;17.47;15.90;;;18.30;99.90;;;;;;5033408;28;20440;-66
2021/08/23 01:28:29;;;;;;;17.60;16.10;;;18.30;99.90;;;;;;5033322;28;20957;-66
2021/08/23 01:31:04;;;;;;;17.00;15.70;;;18.20;99.90;;;;;;5032868;28;20499;-67
2021/08/23 01:33:33;;;;;;;17.33;16.03;;;18.30;99.90;;;;;;5033153;28;20444;-66
2021/08/23 01:36:00;;;;;;;16.13;14.90;;;18.30;99.90;;;;;;5033143;28;20441;-66
2021/08/23 01:38:27;;;;;;;17.00;15.83;;;18.30;99.90;;;;;;5032961;28;20789;-66
2021/08/23 01:40:59;;;;;;;16.80;15.60;;;18.20;99.90;;;;;;5032938;28;20460;-66
2021/08/23 01:43:26;;;;;;;14.70;13.73;;;18.20;99.90;;;;;;5032907;28;20445;-66
2021/08/23 01:45:53;;;;;;;15.50;14.40;;;18.20;99.90;;;;;;5033012;28;20448;-66
2021/08/23 01:48:19;;;;;;;15.43;14.13;;;18.20;99.90;;;;;;5032879;28;20938;-66
2021/08/23 01:50:47;;;;;;;15.83;14.27;;;18.10;99.90;;;;;;5032794;28;20457;-66
2021/08/23 01:53:16;;;;;;;13.80;13.00;;;18.10;99.90;;;;;;5032761;28;20836;-66
2021/08/23 01:55:42;;;;;;;15.40;14.20;;;18.10;99.90;;;;;;5032759;28;20452;-66
2021/08/23 01:58:09;;;;;;;16.30;15.10;;;18.10;99.90;;;;;;5032651;28;20449;-66
2021/08/23 02:00:36;;;;;;;16.83;15.43;;;18.00;99.90;;;;;;5032529;28;21056;-66
2021/08/23 02:03:02;;;;;;;17.30;15.80;;;18.00;99.90;;;;;;5032531;28;20445;-66
2021/08/23 02:05:29;;;;;;;17.47;16.07;;;17.90;99.90;;;;;;5032559;28;20946;-66
2021/08/23 02:07:58;;;;;;;18.33;16.90;;;17.80;99.90;;;;;;5032612;28;20476;-66
2021/08/23 02:10:25;;;;;;;18.20;16.60;;;17.80;99.90;;;;;;5032423;28;20441;-66
2021/08/23 02:12:52;;;;;;;17.80;16.40;;;17.70;99.90;;;;;;5032279;28;20512;-66
2021/08/23 02:15:19;;;;;;;17.33;16.07;;;17.60;99.90;;;;;;5032153;28;20450;-66
2021/08/23 02:17:46;;;;;;;16.60;15.30;;;17.60;99.90;;;;;;5032449;28;20445;-66
2021/08/23 02:20:13;;;;;;;17.57;16.27;;;17.50;99.90;;;;;;5032116;28;20445;-66
2021/08/23 02:22:41;;;;;;;18.93;16.93;;;17.40;99.90;;;;;;5031495;28;20808;-66
2021/08/23 02:25:11;;;;;;;15.77;14.57;;;17.30;99.90;;;;;;5032114;28;20456;-66
2021/08/23 02:27:37;;;;;;;16.90;15.40;;;17.20;99.90;;;;;;5032053;28;20445;-66
2021/08/23 02:30:05;;;;;;;17.57;16.03;;;17.20;99.90;;;;;;5032212;28;20449;-66
2021/08/23 02:32:33;;;;;;;18.27;16.20;;;17.10;99.90;;;;;;5031778;28;20488;-66
2021/08/23 02:35:00;;;;;;;17.13;15.73;;;17.00;99.90;;;;;;5032150;28;20503;-66
2021/08/23 02:37:27;;;;;;;15.70;14.30;;;17.00;99.90;;;;;;5031858;28;20452;-66
2021/08/23 02:39:53;;;;;;;18.60;17.10;;;16.90;99.90;;;;;;5032228;28;20444;-66
2021/08/23 02:42:21;;;;;;;16.70;15.50;;;16.80;99.90;;;;;;5031640;28;20461;-66
2021/08/23 02:44:48;;;;;;;18.50;16.70;;;16.70;99.90;;;;;;5031911;28;20502;-67
2021/08/23 02:47:15;;;;;;;16.80;15.33;;;16.70;99.90;;;;;;5032001;28;20456;-67
2021/08/23 02:49:41;;;;;;;17.40;15.93;;;16.60;99.90;;;;;;5031985;28;20445;-66
2021/08/23 02:52:08;;;;;;;17.70;16.20;;;16.50;99.90;;;;;;5031439;28;20492;-66
2021/08/23 02:54:35;;;;;;;17.03;15.30;;;16.40;99.90;;;;;;5031537;28;20455;-66
2021/08/23 02:57:01;;;;;;;16.67;15.07;;;16.40;99.90;;;;;;5031856;28;20468;-66
2021/08/23 02:59:29;;;;;;;15.97;14.57;;;16.30;99.90;;;;;;5031727;28;20445;-66
2021/08/23 03:01:56;;;;;;;16.03;14.53;;;16.30;99.90;;;;;;5031233;28;20846;-66
2021/08/23 03:04:23;;;;;;;17.57;15.70;;;16.30;99.90;;;;;;5031678;28;20445;-66
2021/08/23 03:06:50;;;;;;;17.00;15.17;;;16.30;99.90;;;;;;5031828;28;20453;-66
2021/08/23 03:09:16;;;;;;;18.43;16.80;;;16.30;99.90;;;;;;5031380;28;20467;-66
2021/08/23 03:11:43;;;;;;;18.40;16.70;;;16.40;99.90;;;;;;5031228;28;20830;-66
2021/08/23 03:14:10;;;;;;;18.83;16.93;;;16.50;99.90;;;;;;5031585;28;20810;-66
2021/08/23 03:16:38;;;;;;;18.63;16.93;;;16.60;99.90;;;;;;5031679;28;20444;-66
2021/08/23 03:19:04;;;;;;;17.60;15.83;;;16.70;99.90;;;;;;5032615;28;20449;-66
2021/08/23 03:21:31;;;;;;;17.03;15.50;;;16.70;99.90;;;;;;5030931;28;20461;-66
2021/08/23 03:23:58;;;;;;;18.20;16.30;;;16.80;99.90;;;;;;5031459;28;20446;-66
2021/08/23 03:26:24;;;;;;;18.43;16.67;;;16.80;99.90;;;;;;5031061;28;20445;-66
2021/08/23 03:28:52;;;;;;;18.67;16.97;;;16.90;99.90;;;;;;5031676;28;20455;-66
2021/08/23 03:31:19;;;;;;;18.17;16.30;;;17.00;99.90;;;;;;5031108;28;20560;-66
2021/08/23 03:33:47;;;;;;;17.40;15.90;;;17.10;99.90;;;;;;5034809;28;20453;-66
2021/08/23 03:36:13;;;;;;;19.17;17.13;;;17.20;99.90;;;;;;5035454;28;20444;-66
2021/08/23 03:38:41;;;;;;;16.80;15.30;;;17.20;99.90;;;;;;5035479;28;20444;-66
2021/08/23 03:41:08;;;;;;;15.73;14.10;;;17.30;99.90;;;;;;5034877;28;20464;-66
2021/08/23 03:43:35;;;;;;;17.30;15.60;;;17.40;99.90;;;;;;5035239;28;20926;-66
2021/08/23 03:46:01;;;;;;;15.80;14.07;;;17.50;99.90;;;;;;5035313;28;20812;-66
2021/08/23 03:48:28;;;;;;;17.00;15.40;;;17.60;99.90;;;;;;5035238;28;20445;-66
2021/08/23 03:50:56;;;;;;;16.00;14.60;;;17.60;99.90;;;;;;5035002;28;20464;-66
2021/08/23 03:53:23;;;;;;;18.93;17.27;;;17.60;99.90;;;;;;5035006;28;20480;-66
2021/08/23 03:55:50;;;;;;;17.00;15.40;;;17.70;99.90;;;;;;5035195;28;20785;-66
2021/08/23 03:58:16;;;;;;;18.33;16.40;;;17.70;99.90;;;;;;5034807;28;20516;-66
2021/08/23 04:00:44;;;;;;;17.23;15.63;;;17.70;99.90;;;;;;5034491;28;20475;-66
2021/08/23 04:03:11;;;;;;;16.77;15.33;;;17.70;99.90;;;;;;5034690;28;20531;-66
2021/08/23 04:05:37;;;;;;;21.50;15.67;;;17.70;99.90;;;;;;5034787;28;20449;-67
2021/08/23 04:08:05;;;;;;;17.80;15.87;;;17.70;99.90;;;;;;5034736;28;20922;-66
2021/08/23 04:10:32;;;;;;;18.90;17.10;;;17.70;99.90;;;;;;5034721;28;20460;-66
2021/08/23 04:12:59;;;;;;;18.80;17.00;;;17.60;99.90;;;;;;5034452;28;20508;-66
2021/08/23 04:15:26;;;;;;;19.20;17.50;;;17.60;99.90;;;;;;5034383;28;20780;-66
2021/08/23 04:17:52;;;;;;;20.10;18.00;;;17.50;99.90;;;;;;5034659;28;20445;-66
2021/08/23 04:20:19;;;;;;;20.97;18.70;;;17.40;99.90;;;;;;5034536;28;20452;-66
2021/08/23 04:22:46;;;;;;;20.10;18.27;;;17.20;99.90;;;;;;5034241;28;20440;-66
2021/08/23 04:25:14;;;;;;;21.50;19.50;;;17.20;99.90;;;;;;5034621;28;20437;-66
2021/08/23 04:27:40;;;;;;;23.17;20.90;;;17.10;99.90;;;;;;5034425;28;20441;-66
2021/08/23 04:30:08;;;;;;;22.47;20.17;;;17.00;99.90;;;;;;5034343;28;20449;-66
2021/08/23 04:32:34;;;;;;;20.73;18.73;;;16.90;99.90;;;;;;5033628;28;20500;-66
2021/08/23 04:35:01;;;;;;;22.10;20.03;;;16.90;99.90;;;;;;5034469;28;20453;-66
2021/08/23 04:37:28;;;;;;;24.10;21.63;;;16.80;99.90;;;;;;5034329;28;20441;-67
2021/08/23 04:39:54;;;;;;;22.93;20.73;;;16.80;99.90;;;;;;5031881;28;20468;-66
2021/08/23 04:42:22;;;;;;;25.67;21.40;;;16.70;99.90;;;;;;5033823;28;20477;-67
2021/08/23 04:44:49;;;;;;;23.43;21.20;;;16.60;99.90;;;;;;5032721;28;20444;-67
2021/08/23 04:47:16;;;;;;;28.23;24.03;;;16.60;99.90;;;;;;5033086;28;20445;-67
2021/08/23 04:49:43;;;;;;;24.70;21.57;;;16.60;99.90;;;;;;5032519;28;20978;-67
2021/08/23 04:52:10;;;;;;;25.03;22.30;;;16.60;99.90;;;;;;5032324;28;20985;-67
2021/08/23 04:54:36;;;;;;;29.60;26.70;;;16.50;99.90;;;;;;5030999;28;20456;-67
2021/08/23 04:57:03;;;;;;;25.47;20.10;;;16.50;99.90;;;;;;5032816;28;20834;-67
2021/08/23 04:59:31;;;;;;;28.53;24.87;;;16.50;99.90;;;;;;5032893;28;20464;-67
2021/08/23 05:01:58;;;;;;;30.63;25.97;;;16.50;99.90;;;;;;5058265;23;20484;-71
2021/08/23 05:04:24;;;;;;;31.13;25.37;;;16.50;99.90;;;;;;5045032;28;20452;-72
2021/08/23 05:06:52;;;;;;;28.47;25.33;;;16.60;99.90;;;;;;5053342;28;20451;-72
2021/08/23 05:09:18;;;;;;;28.57;24.43;;;16.60;99.90;;;;;;5053332;28;20440;-72
2021/08/23 05:11:45;;;;;;;23.87;21.33;;;16.80;99.90;;;;;;5052939;28;20804;-72
2021/08/23 05:14:12;;;;;;;28.43;25.27;;;16.90;99.90;;;;;;5053277;28;20452;-72
2021/08/23 05:16:40;;;;;;;23.40;20.70;;;17.00;99.90;;;;;;5053075;28;20448;-72
2021/08/23 05:19:07;;;;;;;22.93;20.67;;;17.10;99.90;;;;;;5053181;28;20479;-71
2021/08/23 05:21:34;;;;;;;24.40;21.73;;;17.20;99.90;;;;;;5052771;28;20463;-71
2021/08/23 05:24:00;;;;;;;23.07;20.60;;;17.30;99.90;;;;;;5053003;28;20858;-71
2021/08/23 05:26:27;;;;;;;24.07;21.43;;;17.30;99.90;;;;;;5053152;28;20440;-72
2021/08/23 05:28:54;;;;;;;25.67;22.70;;;17.50;99.90;;;;;;5052978;28;20451;-72
2021/08/23 05:31:21;;;;;;;24.10;21.70;;;17.50;99.90;;;;;;5052734;28;20973;-72
2021/08/23 05:33:50;;;;;;;25.00;19.80;;;17.60;99.90;;;;;;5052761;28;20483;-72
2021/08/23 05:36:16;;;;;;;23.70;21.27;;;17.60;99.90;;;;;;5052767;28;20443;-72
2021/08/23 05:38:43;;;;;;;23.17;21.10;;;17.70;99.90;;;;;;5052834;28;20443;-71
2021/08/23 05:41:10;;;;;;;23.70;21.43;;;17.80;99.90;;;;;;5052477;28;20464;-72
2021/08/23 05:43:36;;;;;;;25.50;22.80;;;17.90;99.90;;;;;;5052435;28;20475;-72
2021/08/23 05:46:03;;;;;;;25.63;23.03;;;17.90;99.90;;;;;;5052673;28;20446;-71
2021/08/23 05:48:32;;;;;;;25.53;23.13;;;18.00;99.90;;;;;;5052287;28;20444;-72
2021/08/23 05:51:01;;;;;;;24.43;22.13;;;18.10;99.90;;;;;;5052394;28;20796;-72
2021/08/23 05:53:28;;;;;;;24.30;22.00;;;18.20;99.90;;;;;;5052243;28;21082;-72
2021/08/23 05:55:55;;;;;;;24.07;22.03;;;18.30;99.90;;;;;;5052251;28;20829;-72
2021/08/23 05:58:21;;;;;;;23.03;20.93;;;18.30;99.90;;;;;;5052603;28;20444;-72
2021/08/23 06:00:48;;;;;;;23.47;21.37;;;18.40;99.90;;;;;;5052210;28;20815;-71
2021/08/23 06:03:15;;;;;;;22.70;20.77;;;18.50;99.90;;;;;;5052093;28;20440;-72
2021/08/23 06:05:41;;;;;;;22.23;20.40;;;18.50;99.90;;;;;;5052202;28;20444;-71
2021/08/23 06:08:09;;;;;;;24.43;22.33;;;18.50;99.90;;;;;;5052136;28;20448;-72
2021/08/23 06:10:36;;;;;;;25.80;23.70;;;18.50;99.90;;;;;;5052278;28;20452;-72
2021/08/23 06:13:04;;;;;;;27.33;24.83;;;18.50;99.90;;;;;;5051898;28;20476;-71
2021/08/23 06:15:30;;;;;;;24.30;22.13;;;18.60;99.90;;;;;;5052156;28;20451;-72
2021/08/23 06:17:57;;;;;;;25.67;23.47;;;18.80;99.90;;;;;;5052223;28;20455;-71
2021/08/23 06:20:24;;;;;;;36.73;27.73;;;18.90;99.90;;;;;;5052078;28;20452;-72
2021/08/23 06:22:51;;;;;;;24.67;22.57;;;19.10;99.90;;;;;;5051532;28;20872;-72
2021/08/23 06:25:19;;;;;;;26.90;24.70;;;19.20;99.90;;;;;;5051951;28;20452;-72
2021/08/23 06:27:46;;;;;;;27.60;25.23;;;19.50;99.90;;;;;;5051944;28;20529;-72
2021/08/23 06:30:13;;;;;;;28.93;26.53;;;19.60;99.90;;;;;;5052001;28;20925;-72
2021/08/23 06:32:40;;;;;;;34.90;31.80;;;19.70;99.90;;;;;;5051529;28;20479;-72
2021/08/23 06:35:08;;;;;;;31.30;28.60;;;19.70;99.90;;;;;;5051978;28;20444;-72
2021/08/23 06:37:36;;;;;;;33.23;30.23;;;19.80;99.90;;;;;;5051796;28;20799;-72
2021/08/23 06:40:07;;;;;;;34.60;31.53;;;20.00;99.90;;;;;;5051749;28;20929;-72
2021/08/23 06:42:36;;;;;;;31.73;29.13;;;20.10;99.90;;;;;;5051468;28;20471;-72
2021/08/23 06:45:03;;;;;;;31.30;28.80;;;20.20;99.90;;;;;;5051401;28;20471;-72
2021/08/23 06:47:30;;;;;;;31.67;28.90;;;20.30;99.90;;;;;;5051603;28;20528;-72
2021/08/23 06:49:57;;;;;;;32.53;30.03;;;20.40;99.90;;;;;;5051541;28;20451;-72
2021/08/23 06:52:23;;;;;;;33.67;30.97;;;20.30;99.90;;;;;;5051001;28;20471;-72
2021/08/23 06:54:50;;;;;;;31.20;28.70;;;20.30;99.90;;;;;;5051452;28;20448;-71
2021/08/23 06:57:17;;;;;;;31.03;28.73;;;20.30;99.90;;;;;;5051430;28;20448;-72
2021/08/23 06:59:45;;;;;;;31.20;28.73;;;20.30;99.90;;;;;;5051529;28;20455;-72
2021/08/23 07:02:11;;;;;;;30.70;28.13;;;20.30;99.90;;;;;;5050903;28;20591;-72
2021/08/23 07:04:38;;;;;;;33.10;30.57;;;20.30;99.90;;;;;;5051131;28;20965;-72
2021/08/23 07:07:05;;;;;;;30.53;28.37;;;20.20;99.90;;;;;;5050593;28;20452;-71
2021/08/23 07:09:32;;;;;;;30.80;28.70;;;20.30;99.90;;;;;;5051262;28;20444;-72
2021/08/23 07:11:58;;;;;;;29.63;27.50;;;20.40;99.90;;;;;;5050791;28;20475;-72
2021/08/23 07:14:25;;;;;;;27.87;25.90;;;20.70;99.90;;;;;;5051376;28;20484;-71
2021/08/23 07:16:53;;;;;;;30.10;28.00;;;20.90;99.90;;;;;;5051310;28;20451;-72
2021/08/23 07:19:20;;;;;;;31.33;28.93;;;20.90;99.90;;;;;;5051182;28;20466;-72
2021/08/23 07:21:46;;;;;;;31.07;28.87;;;20.70;99.90;;;;;;5050867;28;20471;-72
2021/08/23 07:24:13;;;;;;;29.40;27.47;;;20.60;99.90;;;;;;5051037;28;20486;-72
2021/08/23 07:26:40;;;;;;;29.33;27.43;;;20.60;99.90;;;;;;5051037;28;20981;-72
2021/08/23 07:29:06;;;;;;;29.57;27.57;;;20.60;99.90;;;;;;5050982;28;20451;-72
2021/08/23 07:31:33;;;;;;;33.83;31.23;;;20.50;99.90;;;;;;5050847;28;20460;-72
2021/08/23 07:34:01;;;;;;;31.97;29.47;;;20.60;99.90;;;;;;5051027;28;20487;-72
2021/08/23 07:36:28;;;;;;;36.33;33.27;;;20.30;99.90;;;;;;5050980;28;20452;-71
2021/08/23 07:38:55;;;;;;;35.60;32.70;;;20.30;99.90;;;;;;5051039;28;20444;-72
2021/08/23 07:41:21;;;;;;;35.23;32.47;;;20.20;99.90;;;;;;5050563;28;20472;-72
2021/08/23 07:43:48;;;;;;;33.63;30.73;;;20.20;99.90;;;;;;5050750;28;20933;-72
2021/08/23 07:46:15;;;;;;;34.43;31.73;;;20.30;99.90;;;;;;5050967;28;20810;-71
2021/08/23 07:48:42;;;;;;;35.43;32.47;;;20.50;99.90;;;;;;5050810;28;20448;-72
2021/08/23 07:51:11;;;;;;;37.90;34.77;;;20.40;99.90;;;;;;5050379;28;20508;-72
2021/08/23 07:53:38;;;;;;;38.47;35.30;;;20.40;99.90;;;;;;5050621;28;20570;-72
2021/08/23 07:56:05;;;;;;;43.27;39.77;;;20.40;99.90;;;;;;5050818;28;20448;-72
2021/08/23 07:58:32;;;;;;;45.30;41.50;;;20.20;99.90;;;;;;5050749;28;20453;-72
2021/08/23 08:00:58;;;;;;;46.07;41.87;;;20.20;99.90;;;;;;5050465;28;20480;-72
2021/08/23 08:03:26;;;;;;;43.90;40.17;;;20.20;99.90;;;;;;5050666;28;20440;-72
2021/08/23 08:05:53;;;;;;;46.03;42.07;;;20.20;99.90;;;;;;5050815;28;20756;-72
2021/08/23 08:08:21;;;;;;;47.40;43.27;;;20.10;99.90;;;;;;5050569;28;20454;-71
2021/08/23 08:10:47;;;;;;;45.00;40.80;;;19.90;99.90;;;;;;5050436;28;20444;-71
2021/08/23 08:13:14;;;;;;;40.83;37.30;;;19.80;99.90;;;;;;5050580;28;20862;-71
2021/08/23 08:15:41;;;;;;;41.43;38.00;;;19.70;99.90;;;;;;5050662;28;20459;-71
2021/08/23 08:18:07;;;;;;;41.03;37.50;;;19.90;99.90;;;;;;5051316;28;20452;-72
2021/08/23 08:20:34;;;;;;;39.13;35.80;;;19.80;99.90;;;;;;5054470;28;20444;-72
2021/08/23 08:23:01;;;;;;;38.87;35.43;;;19.80;99.90;;;;;;5054044;28;20460;-72
2021/08/23 08:25:30;;;;;;;36.83;33.90;;;19.70;99.90;;;;;;5054355;28;20445;-71
2021/08/23 08:27:56;;;;;;;39.83;36.33;;;19.70;99.90;;;;;;5054171;28;20459;-72
2021/08/23 08:30:23;;;;;;;38.87;35.47;;;19.60;99.90;;;;;;5054023;28;20807;-72
2021/08/23 08:32:50;;;;;;;38.40;35.30;;;19.90;99.90;;;;;;5053974;28;20475;-72
2021/08/23 08:35:16;;;;;;;33.97;31.27;;;20.00;99.90;;;;;;5054192;28;20448;-72
2021/08/23 08:37:43;;;;;;;37.97;35.17;;;20.30;99.90;;;;;;5053980;28;20956;-72
2021/08/23 08:40:12;;;;;;;34.63;32.13;;;20.70;99.90;;;;;;5053977;28;20921;-72
2021/08/23 08:42:41;;;;;;;34.97;32.37;;;21.00;99.90;;;;;;5053601;28;20471;-72
2021/08/23 08:45:08;;;;;;;34.37;31.67;;;21.00;99.90;;;;;;5053892;28;20921;-72
2021/08/23 08:47:35;;;;;;;35.37;32.57;;;20.80;99.90;;;;;;5053974;28;20440;-72
2021/08/23 08:50:03;;;;;;;33.10;30.60;;;20.70;99.90;;;;;;5053800;28;20451;-72
2021/08/23 08:52:31;;;;;;;33.73;31.23;;;20.60;99.90;;;;;;5053534;28;20475;-72
2021/08/23 08:54:58;;;;;;;33.00;30.70;;;20.60;99.90;;;;;;5053560;28;21023;-72
2021/08/23 08:57:25;;;;;;;32.03;29.87;;;20.60;99.90;;;;;;5053590;28;20444;-72
2021/08/23 08:59:53;;;;;;;29.00;27.33;;;20.80;99.90;;;;;;5053569;28;20455;-72
2021/08/23 09:02:20;;;;;;;30.37;28.30;;;20.80;99.90;;;;;;5053250;28;20518;-72
2021/08/23 09:04:47;;;;;;;28.30;26.60;;;21.10;99.90;;;;;;5053582;28;20807;-72
2021/08/23 09:07:14;;;;;;;28.87;27.13;;;21.20;99.90;;;;;;5053633;28;20444;-72
2021/08/23 09:09:42;;;;;;;30.33;28.20;;;21.10;99.90;;;;;;5053360;28;20448;-72
2021/08/23 09:12:10;;;;;;;30.00;28.10;;;21.20;99.90;;;;;;5053042;28;20500;-72
2021/08/23 09:14:49;;;;;;;29.10;27.37;;;21.20;99.90;;;;;;5053180;28;20488;-72
2021/08/23 09:17:18;;;;;;;28.00;26.30;;;21.30;99.90;;;;;;5053518;28;20875;-72
2021/08/23 09:19:44;;;;;;;27.60;25.87;;;21.30;99.90;;;;;;5053227;28;20933;-72
2021/08/23 09:22:16;;;;;;;28.57;26.67;;;21.20;99.90;;;;;;5052941;28;20467;-72
2021/08/23 09:24:42;;;;;;;27.53;26.03;;;21.20;99.90;;;;;;5053089;28;20466;-72
2021/08/23 09:27:11;;;;;;;26.67;25.10;;;21.40;99.90;;;;;;5053292;28;20471;-72
2021/08/23 09:29:55;;;;;;;29.47;27.33;;;21.30;99.90;;;;;;5052673;28;20452;-72
2021/08/23 09:32:24;;;;;;;25.10;23.80;;;21.40;99.90;;;;;;5052665;28;20875;-72
2021/08/23 09:34:52;;;;;;;27.40;25.80;;;21.60;99.90;;;;;;5052721;28;21004;-72
2021/08/23 09:37:20;;;;;;;25.93;24.53;;;21.80;99.90;;;;;;5052913;28;20790;-72
2021/08/23 09:39:47;;;;;;;25.87;24.50;;;22.00;99.90;;;;;;5052743;28;20449;-72
2021/08/23 09:42:15;;;;;;;24.73;23.43;;;22.20;99.90;;;;;;5052440;28;20810;-72
2021/08/23 09:44:42;;;;;;;25.17;23.67;;;22.20;99.90;;;;;;5052691;28;20447;-72
2021/08/23 09:47:10;;;;;;;25.83;24.43;;;22.70;99.90;;;;;;5052761;28;20440;-72
2021/08/23 09:49:40;;;;;;;24.53;23.13;;;22.80;99.90;;;;;;5052650;28;20451;-72
2021/08/23 09:52:08;;;;;;;24.80;23.20;;;23.10;99.90;;;;;;5052133;28;20464;-72
2021/08/23 09:54:35;;;;;;;25.30;23.70;;;22.80;99.90;;;;;;5052326;28;21031;-72
2021/08/23 09:57:03;;;;;;;24.70;23.30;;;22.20;99.90;;;;;;5052511;28;20444;-71
2021/08/23 09:59:34;;;;;;;23.50;22.20;;;22.10;99.90;;;;;;5052427;28;20480;-72
2021/08/23 10:02:01;;;;;;;25.63;24.00;;;22.50;99.90;;;;;;5051949;28;20480;-72
2021/08/23 10:04:29;;;;;;;24.43;23.10;;;22.90;99.90;;;;;;5052555;28;20440;-72
2021/08/23 10:06:57;;;;;;;24.20;22.77;;;23.10;99.90;;;;;;5052341;28;20452;-72
2021/08/23 10:09:25;;;;;;;23.80;22.70;;;23.20;99.90;;;;;;5052230;28;20933;-72
2021/08/23 10:11:54;;;;;;;23.10;22.00;;;23.70;99.90;;;;;;5051956;28;20460;-72
2021/08/23 10:14:21;;;;;;;25.00;23.60;;;24.30;99.90;;;;;;5052083;28;20483;-72
2021/08/23 10:16:48;;;;;;;25.07;23.37;;;24.40;99.90;;;;;;5052282;28;20451;-72
2021/08/23 10:19:15;;;;;;;24.93;23.70;;;24.50;99.90;;;;;;5052131;28;20472;-72
2021/08/23 10:21:43;;;;;;;24.87;23.63;;;24.30;99.90;;;;;;5051786;28;21004;-72
2021/08/23 10:24:13;;;;;;;24.83;23.63;;;24.40;99.90;;;;;;5051969;28;20448;-72
2021/08/23 10:26:42;;;;;;;25.03;23.73;;;24.30;99.90;;;;;;5052277;28;20809;-72
2021/08/23 10:29:09;;;;;;;24.43;23.30;;;24.50;99.90;;;;;;5052075;28;20451;-72
2021/08/23 10:31:39;;;;;;;24.47;23.20;;;24.20;99.90;;;;;;5051623;28;20836;-72
2021/08/23 10:34:16;;;;;;;24.13;23.03;;;24.70;99.90;;;;;;5051749;28;20491;-72
2021/08/23 10:36:45;;;;;;;24.43;23.33;;;25.00;99.90;;;;;;5051736;28;20455;-71
2021/08/23 10:39:19;;;;;;;25.17;23.87;;;25.30;99.90;;;;;;5051865;28;20448;-72
2021/08/23 10:41:46;;;;;;;26.37;24.80;;;25.30;99.90;;;;;;5050686;28;20470;-72
2021/08/23 10:44:23;;;;;;;25.47;24.27;;;25.90;99.90;;;;;;5051678;28;20962;-72
2021/08/23 10:46:50;;;;;;;26.27;24.87;;;25.90;99.90;;;;;;5051681;28;20458;-72
2021/08/23 10:49:17;;;;;;;27.10;25.77;;;25.50;99.90;;;;;;5051527;28;20475;-72
2021/08/23 10:51:55;;;;;;;27.50;26.10;;;25.00;99.90;;;;;;5051247;28;20468;-71
2021/08/23 10:54:25;;;;;;;27.73;26.30;;;24.70;99.90;;;;;;5051515;28;20483;-72
2021/08/23 10:57:04;;;;;;;27.33;25.97;;;24.40;99.90;;;;;;5051564;28;20444;-72
2021/08/23 10:59:39;;;;;;;27.77;26.27;;;24.20;99.90;;;;;;5051477;28;20444;-72
2021/08/23 11:02:06;;;;;;;28.17;26.67;;;24.20;99.90;;;;;;5051690;28;20544;-72
2021/08/23 11:04:34;;;;;;;27.50;26.00;;;24.10;99.90;;;;;;5051410;28;20440;-72
2021/08/23 11:07:02;;;;;;;26.80;25.40;;;24.00;99.90;;;;;;5051445;28;20455;-72
2021/08/23 11:09:35;;;;;;;29.13;27.60;;;23.90;99.90;;;;;;5051398;28;20451;-71
2021/08/23 11:12:13;;;;;;;27.00;25.60;;;24.00;99.90;;;;;;5051022;28;20468;-72
2021/08/23 11:14:48;;;;;;;27.63;26.20;;;23.90;99.90;;;;;;5051243;28;20479;-71
2021/08/23 11:17:30;;;;;;;27.87;26.37;;;24.00;99.90;;;;;;5051202;28;20959;-72
2021/08/23 11:19:57;;;;;;;28.30;26.90;;;24.00;99.90;;;;;;5051320;28;20821;-72
2021/08/23 11:22:24;;;;;;;28.57;27.07;;;23.90;99.90;;;;;;5050846;28;20480;-72
2021/08/23 11:24:52;;;;;;;28.87;27.17;;;23.60;99.90;;;;;;5051242;28;20544;-72
2021/08/23 11:27:19;;;;;;;29.20;27.37;;;23.60;99.90;;;;;;5051051;28;20527;-72
2021/08/23 11:29:51;;;;;;;27.40;25.70;;;23.70;99.90;;;;;;5051190;28;20462;-72
2021/08/23 11:32:19;;;;;;;28.87;27.07;;;23.70;99.90;;;;;;5050827;28;20468;-71
2021/08/23 11:34:51;;;;;;;28.57;26.97;;;23.70;99.90;;;;;;5051043;28;20479;-72
2021/08/23 11:37:22;;;;;;;28.10;26.50;;;23.50;99.90;;;;;;5051176;28;20781;-71
2021/08/23 11:39:48;;;;;;;28.47;26.87;;;23.20;99.90;;;;;;5051018;28;20948;-72
2021/08/23 11:42:23;;;;;;;28.87;27.37;;;23.70;99.90;;;;;;5050894;28;20811;-72
2021/08/23 11:44:53;;;;;;;29.83;28.03;;;24.30;99.90;;;;;;5051027;28;20450;-72
2021/08/23 11:47:29;;;;;;;30.23;28.67;;;24.90;99.90;;;;;;5051199;28;20440;-71
2021/08/23 11:49:56;;;;;;;27.27;25.77;;;25.60;99.90;;;;;;5051056;28;20487;-72
2021/08/23 11:52:23;;;;;;;28.40;27.10;;;27.20;99.90;;;;;;5050480;28;20468;-72
2021/08/23 11:54:52;;;;;;;31.50;30.00;;;30.50;91.00;;;;;;5054124;28;20480;-72
2021/08/23 11:57:22;;;;;;;30.03;28.50;;;31.60;70.80;;;;;;5054520;28;20937;-72
2021/08/23 11:59:59;;;;;;;29.70;28.20;;;30.50;66.80;;;;;;5054823;28;20459;-72
2021/08/23 12:02:28;;;;;;;29.77;28.27;;;29.50;69.20;;;;;;5054268;28;20839;-72
2021/08/23 12:05:12;;;;;;;28.93;27.63;;;29.10;71.90;;;;;;5054791;28;20471;-72
2021/08/23 12:07:47;;;;;;;28.97;27.67;;;29.20;74.30;;;;;;5054619;28;20459;-72
2021/08/23 12:10:24;;;;;;;31.47;29.60;;;29.40;73.90;;;;;;5054508;28;20439;-72
2021/08/23 12:12:53;;;;;;;30.30;28.43;;;28.00;72.00;;;;;;5054222;28;20471;-72
2021/08/23 12:15:23;;;;;;;29.10;27.40;;;27.30;78.70;;;;;;5054327;28;20482;-72
2021/08/23 12:17:50;;;;;;;29.90;28.40;;;26.60;83.20;;;;;;5054474;28;20459;-72
2021/08/23 12:20:20;;;;;;;29.13;27.60;;;27.00;86.00;;;;;;5054239;28;20450;-72
2021/08/23 12:22:47;;;;;;;28.57;27.17;;;27.20;82.20;;;;;;5054259;28;20965;-72
2021/08/23 12:25:24;;;;;;;28.00;26.70;;;27.20;83.90;;;;;;5054294;28;20846;-72
2021/08/23 12:27:52;;;;;;;28.03;26.63;;;27.20;84.90;;;;;;5054350;28;20455;-72
2021/08/23 12:30:26;;;;;;;26.77;25.57;;;26.90;85.80;;;;;;5054392;28;20444;-72
2021/08/23 12:32:53;;;;;;;28.67;27.27;;;26.60;88.40;;;;;;5053966;28;20460;-72